createdAt,value
2023-03-16T00:01:37.655Z,98666.56
2023-03-16T00:06:41.127Z,98670.81
2023-03-16T00:11:44.672Z,98641.53
2023-03-16T00:16:49.824Z,98661.44
2023-03-16T00:21:53.658Z,98669.28
2023-03-16T00:26:57.310Z,98662.28
2023-03-16T00:32:03.572Z,98650.97
2023-03-16T00:37:07.238Z,98650.16
2023-03-16T00:42:11.427Z,98640.69
2023-03-16T00:47:16.623Z,98656.09
2023-03-16T00:52:20.512Z,98648.38
2023-03-16T00:57:27.938Z,98645.97
2023-03-16T01:02:32.844Z,98646.09
2023-03-16T01:07:36.624Z,98643.50
2023-03-16T01:12:40.108Z,98651.84
2023-03-16T01:17:45.051Z,98644.28
2023-03-16T01:22:48.315Z,98647.50
2023-03-16T01:27:53.946Z,98647.59
2023-03-16T01:32:58.970Z,98638.94
2023-03-16T01:38:02.472Z,98644.03
2023-03-16T01:43:07.054Z,98656.09
2023-03-16T01:48:11.952Z,98666.31
2023-03-16T01:53:15.405Z,98658.81
2023-03-16T01:58:19.498Z,98647.75
2023-03-16T02:03:24.581Z,98646.84
2023-03-16T02:08:29.299Z,98655.50
2023-03-16T02:13:36.929Z,98658.00
2023-03-16T02:18:42.045Z,98667.53
2023-03-16T02:23:45.739Z,98665.63
2023-03-16T02:29:02.681Z,98664.00
2023-03-16T02:34:08.500Z,98664.00
2023-03-16T02:39:12.194Z,98669.16
2023-03-16T02:44:19.125Z,98679.63
2023-03-16T02:49:27.556Z,98667.66
2023-03-16T02:54:31.297Z,98659.94
2023-03-16T02:59:34.835Z,98663.28
2023-03-16T03:04:39.592Z,98660.69
2023-03-16T03:09:43.472Z,98647.78
2023-03-16T03:14:46.948Z,98646.16
2023-03-16T03:19:52.146Z,98656.38
2023-03-16T03:24:55.459Z,98654.72
2023-03-16T03:29:58.778Z,98638.50
2023-03-16T03:35:03.587Z,98647.06
2023-03-16T03:40:08.226Z,98641.09
2023-03-16T03:45:13.136Z,98642.03
2023-03-16T03:50:17.691Z,98635.22
2023-03-16T03:55:22.597Z,98627.50
2023-03-16T04:00:26.040Z,98618.13
2023-03-16T04:05:29.600Z,98619.78
2023-03-16T04:10:34.657Z,98623.38
2023-03-16T04:15:38.826Z,98626.78
2023-03-16T04:20:42.185Z,98612.84
2023-03-16T04:25:47.517Z,98625.66
2023-03-16T04:30:51.194Z,98625.69
2023-03-16T04:35:54.613Z,98622.41
2023-03-16T04:40:59.388Z,98626.81
2023-03-16T04:46:03.915Z,98633.63
2023-03-16T04:51:07.763Z,98647.28
2023-03-16T04:56:18.278Z,98660.13
2023-03-16T05:01:22.188Z,98661.81
2023-03-16T05:06:25.636Z,98663.50
2023-03-16T05:11:30.640Z,98658.34
2023-03-16T05:16:34.140Z,98664.47
2023-03-16T05:21:38.897Z,98666.16
2023-03-16T05:26:43.845Z,98666.09
2023-03-16T05:31:48.103Z,98685.78
2023-03-16T05:36:52.002Z,98695.97
2023-03-16T05:41:56.905Z,98696.94
2023-03-16T05:47:00.427Z,98679.78
2023-03-16T05:52:04.388Z,98694.34
2023-03-16T05:57:09.457Z,98695.19
2023-03-16T06:02:13.181Z,98698.59
2023-03-16T06:07:16.723Z,98689.09
2023-03-16T06:12:21.636Z,98690.84
2023-03-16T06:17:24.757Z,98696.94
2023-03-16T06:22:28.475Z,98689.28
2023-03-16T06:27:33.291Z,98687.56
2023-03-16T06:32:38.253Z,98689.34
2023-03-16T06:37:42.014Z,98705.50
2023-03-16T06:42:47.494Z,98715.81
2023-03-16T06:47:51.261Z,98711.47
2023-03-16T06:52:54.920Z,98715.59
2023-03-16T06:57:59.800Z,98714.63
2023-03-16T07:03:03.462Z,98724.19
2023-03-16T07:08:07.090Z,98731.09
2023-03-16T07:13:12.076Z,98736.34
2023-03-16T07:18:15.339Z,98735.66
2023-03-16T07:23:20.184Z,98729.63
2023-03-16T07:28:25.180Z,98724.53
2023-03-16T07:33:28.794Z,98723.69
2023-03-16T07:38:32.734Z,98711.84
2023-03-16T07:43:37.876Z,98719.72
2023-03-16T07:48:41.046Z,98727.56
2023-03-16T07:53:44.613Z,98719.03
2023-03-16T07:58:49.517Z,98716.59
2023-03-16T08:03:53.828Z,98716.69
2023-03-16T08:08:57.373Z,98720.19
2023-03-16T08:14:02.184Z,98727.03
2023-03-16T08:19:05.733Z,98727.06
2023-03-16T08:24:19.548Z,98727.91
2023-03-16T08:29:27.790Z,98727.09
2023-03-16T08:34:32.235Z,98709.09
2023-03-16T08:39:35.971Z,98709.03
2023-03-16T08:44:41.566Z,98708.13
2023-03-16T08:49:45.521Z,98716.59
2023-03-16T08:55:02.023Z,98722.59
2023-03-16T09:00:13.384Z,98723.50
2023-03-16T09:05:20.024Z,98726.16
2023-03-16T09:10:24.446Z,98736.53
2023-03-16T09:15:29.368Z,98740.84
2023-03-16T09:20:33.292Z,98739.16
2023-03-16T09:25:37.033Z,98732.38
2023-03-16T09:30:42.452Z,98709.97
2023-03-16T09:35:46.525Z,98715.31
2023-03-16T09:40:57.649Z,98725.75
2023-03-16T09:46:09.695Z,98726.66
2023-03-16T09:51:21.879Z,98733.53
2023-03-16T09:56:32.390Z,98741.28
2023-03-16T10:01:48.679Z,98746.41
2023-03-16T10:07:04.004Z,98726.63
2023-03-16T10:12:10.093Z,98740.41
2023-03-16T10:17:18.578Z,98742.97
2023-03-16T10:22:26.842Z,98747.22
2023-03-16T10:27:33.024Z,98751.53
2023-03-16T10:32:38.761Z,98751.47
2023-03-16T10:37:42.794Z,98757.50
2023-03-16T10:42:47.092Z,98757.53
2023-03-16T10:47:52.112Z,98754.97
2023-03-16T10:52:58.251Z,98753.28
2023-03-16T10:58:03.681Z,98752.41
2023-03-16T11:03:24.671Z,98752.47
2023-03-16T11:08:32.708Z,98742.13
2023-03-16T11:13:38.938Z,98757.66
2023-03-16T11:18:47.843Z,98761.13
2023-03-16T11:23:56.327Z,98758.53
2023-03-16T11:29:09.560Z,98754.22
2023-03-16T11:34:26.018Z,98744.75
2023-03-16T11:39:34.932Z,98754.22
2023-03-16T11:44:47.496Z,98770.59
2023-03-16T11:50:00.084Z,98771.47
2023-03-16T11:55:19.768Z,98762.84
2023-03-16T12:00:33.334Z,98775.78
2023-03-16T12:05:55.498Z,98786.97
2023-03-16T12:11:04.919Z,98783.53
2023-03-16T12:16:14.413Z,98789.56
2023-03-16T12:21:23.330Z,98791.28
2023-03-16T12:26:33.211Z,98804.22
2023-03-16T12:31:43.258Z,98790.41
2023-03-16T12:37:13.739Z,98793.00
2023-03-16T12:42:37.690Z,98804.16
2023-03-16T12:47:54.676Z,98804.16
2023-03-16T12:53:00.263Z,98809.31
2023-03-16T12:58:07.935Z,98811.88
2023-03-16T13:03:16.787Z,98820.47
2023-03-16T13:08:23.175Z,98826.44
2023-03-16T13:13:27.420Z,98829.84
2023-03-16T13:18:37.283Z,98832.41
2023-03-16T13:24:16.447Z,98839.19
2023-03-16T13:29:24.460Z,98837.31
2023-03-16T13:34:31.060Z,98847.47
2023-03-16T13:39:36.124Z,98835.38
2023-03-16T13:44:41.624Z,98824.09
2023-03-16T13:49:49.097Z,98822.25
2023-03-16T13:54:55.240Z,98836.94
2023-03-16T14:00:08.521Z,98821.56
2023-03-16T14:05:13.542Z,98831.84
2023-03-16T14:10:19.365Z,98829.34
2023-03-16T14:15:24.043Z,98831.09
2023-03-16T14:20:27.612Z,98841.31
2023-03-16T14:25:32.611Z,98843.88
2023-03-16T14:30:36.078Z,98850.53
2023-03-16T14:35:43.236Z,98859.19
2023-03-16T14:40:55.184Z,98858.25
2023-03-16T14:45:59.200Z,98863.16
2023-03-16T14:51:04.587Z,98850.28
2023-03-16T14:56:14.611Z,98870.91
2023-03-16T15:01:19.604Z,98867.31
2023-03-16T15:06:23.256Z,98885.19
2023-03-16T15:11:31.896Z,98880.78
2023-03-16T15:16:35.716Z,98879.00
2023-03-16T15:21:39.356Z,98885.13
2023-03-16T15:26:44.305Z,98889.34
2023-03-16T15:31:47.540Z,98905.75
2023-03-16T15:36:52.078Z,98907.31
2023-03-16T15:41:57.067Z,98899.63
2023-03-16T15:47:00.946Z,98906.53
2023-03-16T15:52:05.033Z,98920.94
2023-03-16T15:57:12.985Z,98924.19
2023-03-16T16:02:28.924Z,98944.91
2023-03-16T16:07:32.680Z,98940.41
2023-03-16T16:12:37.553Z,98971.47
2023-03-16T16:17:53.894Z,98975.63
2023-03-16T16:23:03.122Z,98996.88
2023-03-16T16:28:15.278Z,99005.50
2023-03-16T16:33:26.996Z,98996.91
2023-03-16T16:38:30.696Z,99001.22
2023-03-16T16:43:39.997Z,98990.69
2023-03-16T16:48:47.156Z,99010.50
2023-03-16T16:53:51.888Z,99027.84
2023-03-16T16:58:57.971Z,99037.22
2023-03-16T17:04:02.233Z,99036.16
2023-03-16T17:09:06.979Z,99044.44
2023-03-16T17:14:18.291Z,99037.41
2023-03-16T17:19:24.271Z,99035.44
2023-03-16T17:24:28.942Z,99040.47
2023-03-16T17:29:36.753Z,99047.16
2023-03-16T17:34:40.108Z,99062.31
2023-03-16T17:39:43.764Z,99058.09
2023-03-16T17:44:50.625Z,99064.19
2023-03-16T17:49:54.698Z,99075.16
2023-03-16T17:54:58.465Z,99069.78
2023-03-16T18:00:06.634Z,99087.88
2023-03-16T18:05:19.139Z,99086.81
2023-03-16T18:10:25.654Z,99078.81
2023-03-16T18:15:33.995Z,99082.22
2023-03-16T18:20:37.889Z,99099.47
2023-03-16T18:25:42.264Z,99097.53
2023-03-16T18:30:49.306Z,99108.69
2023-03-16T18:35:54.341Z,99107.75
2023-03-16T18:40:58.432Z,99103.63
2023-03-16T18:46:03.273Z,99101.00
2023-03-16T18:51:07.024Z,99119.66
2023-03-16T18:56:18.511Z,99142.06
2023-03-16T19:01:29.193Z,99132.81
2023-03-16T19:06:35.132Z,99134.31
2023-03-16T19:11:43.939Z,99146.34
2023-03-16T19:16:48.939Z,99156.41
2023-03-16T19:21:54.840Z,99146.81
2023-03-16T19:26:59.010Z,99155.63
2023-03-16T19:32:03.902Z,99146.84
2023-03-16T19:37:07.305Z,99177.94
2023-03-16T19:42:21.617Z,99186.66
2023-03-16T19:47:30.985Z,99180.84
2023-03-16T19:52:34.609Z,99170.38
2023-03-16T19:57:38.422Z,99167.38
2023-03-16T20:02:43.361Z,99175.25
2023-03-16T20:07:46.975Z,99176.44
2023-03-16T20:12:55.644Z,99179.66
2023-03-16T20:18:01.324Z,99176.13
2023-03-16T20:23:15.389Z,99185.38
2023-03-16T20:28:21.586Z,99191.34
2023-03-16T20:33:28.926Z,99198.41
2023-03-16T20:38:33.248Z,99190.78
2023-03-16T20:43:37.735Z,99184.81
2023-03-16T20:48:42.655Z,99188.81
2023-03-16T20:53:47.515Z,99188.63
2023-03-16T20:58:55.208Z,99203.34
2023-03-16T21:04:00.287Z,99217.03
2023-03-16T21:09:04.180Z,99207.66
2023-03-16T21:14:09.410Z,99203.34
2023-03-16T21:19:19.889Z,99221.41
2023-03-16T21:24:23.395Z,99227.97
2023-03-16T21:29:27.442Z,99229.72
2023-03-16T21:34:37.085Z,99233.22
2023-03-16T21:39:40.638Z,99237.41
2023-03-16T21:44:44.062Z,99235.88
2023-03-16T21:49:48.893Z,99238.31
2023-03-16T21:54:52.893Z,99255.66
2023-03-16T21:59:56.738Z,99255.84
2023-03-16T22:05:01.744Z,99266.13
2023-03-16T22:10:15.454Z,99269.50
2023-03-16T22:15:20.360Z,99265.69
2023-03-16T22:20:27.642Z,99278.56
2023-03-16T22:25:31.405Z,99275.94
2023-03-16T22:30:34.988Z,99284.75
2023-03-16T22:35:40.637Z,99282.69
2023-03-16T22:40:44.432Z,99292.06
2023-03-16T22:45:48.874Z,99291.94
2023-03-16T22:50:54.750Z,99290.16
2023-03-16T22:55:58.668Z,99294.47
2023-03-16T23:01:10.395Z,99292.25
2023-03-16T23:06:20.706Z,99299.59
2023-03-16T23:11:28.463Z,99307.34
2023-03-16T23:23:26.793Z,99311.47
2023-03-16T23:28:31.572Z,99317.03
2023-03-16T23:33:35.243Z,99325.75
2023-03-16T23:38:38.750Z,99324.75
2023-03-16T23:43:46.262Z,99332.44
2023-03-16T23:48:51.292Z,99332.94
2023-03-16T23:53:55.147Z,99349.34
2023-03-16T23:59:00.104Z,99337.28
